Time;durP1;ratioP1;P1;durP2;ratioP2;P2;SDS_P1;SDS_P2;PMS_P1;PMS_P2;Temp;Humidity;BMP_temperature;BMP_pressure;BME280_temperature;BME280_humidity;BME280_pressure;Samples;Min_cycle;Max_cycle;Signal;HPM_P1;HPM_P2
2023/04/13 00:01:00;;;;;;;0.70;0.70;;;13.10;60.00;;;;;;5013578;28;20685;-51
2023/04/13 00:03:29;;;;;;;1.10;1.00;;;13.00;60.10;;;;;;5012588;28;20448;-54
2023/04/13 00:05:55;;;;;;;1.83;1.00;;;13.10;60.30;;;;;;5017062;28;20889;-53
2023/04/13 00:08:21;;;;;;;0.83;0.83;;;13.10;60.00;;;;;;5024354;28;20498;-49
2023/04/13 00:10:49;;;;;;;1.60;0.83;;;13.00;60.50;;;;;;5027831;28;20485;-49
2023/04/13 00:13:15;;;;;;;1.10;0.90;;;13.10;60.00;;;;;;5021204;28;20478;-51
2023/04/13 00:15:42;;;;;;;0.90;0.80;;;13.00;59.90;;;;;;5026732;28;20939;-52
2023/04/13 00:18:09;;;;;;;2.20;0.80;;;13.00;59.70;;;;;;5020370;28;20955;-54
2023/04/13 00:20:35;;;;;;;0.60;0.57;;;13.00;59.80;;;;;;5012860;28;20439;-52
2023/04/13 00:23:00;;;;;;;0.70;0.70;;;13.00;59.60;;;;;;5024744;28;20951;-50
2023/04/13 00:25:26;;;;;;;0.83;0.70;;;13.00;59.40;;;;;;5016931;28;20591;-53
2023/04/13 00:27:52;;;;;;;0.60;0.50;;;12.90;59.30;;;;;;5022362;28;20316;-50
2023/04/13 00:30:20;;;;;;;0.80;0.80;;;12.70;59.60;;;;;;5013320;28;20231;-50
2023/04/13 00:32:45;;;;;;;0.80;0.80;;;12.60;59.70;;;;;;5010990;28;20615;-51
2023/04/13 00:35:23;;;;;;;0.80;0.80;;;12.50;60.10;;;;;;5012218;28;20453;-50
2023/04/13 00:37:50;;;;;;;0.70;0.70;;;12.40;60.50;;;;;;5022490;28;20237;-50
2023/04/13 00:40:16;;;;;;;0.70;0.70;;;12.40;60.60;;;;;;5029872;28;20447;-49
2023/04/13 00:42:43;;;;;;;0.80;0.50;;;12.40;61.00;;;;;;5021490;28;20784;-50
2023/04/13 00:45:10;;;;;;;1.33;0.70;;;12.30;60.50;;;;;;5026621;28;20494;-51
2023/04/13 00:47:36;;;;;;;0.90;0.90;;;12.10;60.50;;;;;;5031151;28;20939;-49
2023/04/13 00:50:04;;;;;;;0.90;0.90;;;11.90;61.70;;;;;;5030671;28;20432;-51
2023/04/13 00:52:33;;;;;;;0.97;0.73;;;12.00;61.90;;;;;;5026586;28;20186;-50
2023/04/13 00:55:01;;;;;;;0.77;0.77;;;12.20;61.20;;;;;;5015178;28;20481;-52
2023/04/13 00:57:27;;;;;;;0.70;0.67;;;12.40;60.30;;;;;;5024114;28;20873;-53
2023/04/13 00:59:54;;;;;;;0.70;0.70;;;12.30;60.00;;;;;;5028190;28;20976;-51
2023/04/13 01:02:25;;;;;;;4.10;0.63;;;12.30;60.30;;;;;;5022817;28;20780;-51
2023/04/13 01:04:54;;;;;;;0.63;0.63;;;12.40;60.00;;;;;;5013476;28;20456;-50
2023/04/13 01:07:46;;;;;;;0.70;0.70;;;12.50;60.00;;;;;;5012382;28;20975;-50
2023/04/13 01:10:17;;;;;;;3.10;0.90;;;12.50;59.90;;;;;;5016117;28;20460;-49
2023/04/13 01:13:14;;;;;;;1.00;0.80;;;12.40;60.10;;;;;;5017283;28;20452;-49
2023/04/13 01:15:45;;;;;;;0.70;0.70;;;12.50;60.00;;;;;;5016827;28;20448;-49
2023/04/13 01:18:14;;;;;;;0.80;0.80;;;12.50;59.80;;;;;;5022344;28;20480;-49
2023/04/13 01:20:42;;;;;;;0.80;0.80;;;12.40;59.40;;;;;;5015135;28;20467;-50
2023/04/13 01:23:17;;;;;;;0.97;0.87;;;12.40;59.40;;;;;;5019694;28;20449;-49
2023/04/13 01:26:05;;;;;;;0.63;0.57;;;12.40;59.40;;;;;;5008242;28;20471;-50
2023/04/13 01:28:32;;;;;;;1.03;0.73;;;12.50;59.20;;;;;;5010565;28;20536;-49
2023/04/13 01:31:00;;;;;;;0.60;0.60;;;12.50;59.10;;;;;;5015187;28;21296;-49
2023/04/13 01:33:28;;;;;;;0.73;0.73;;;12.50;58.90;;;;;;5012600;28;20516;-52
2023/04/13 01:35:57;;;;;;;1.07;0.70;;;12.50;59.20;;;;;;5012727;28;20475;-54
2023/04/13 01:38:25;;;;;;;1.13;0.67;;;12.60;58.90;;;;;;5021979;28;21079;-52
2023/04/13 01:40:51;;;;;;;1.03;0.83;;;12.60;58.50;;;;;;5015487;28;20811;-50
2023/04/13 01:43:21;;;;;;;0.70;0.60;;;12.70;58.20;;;;;;5010728;28;20451;-50
2023/04/13 01:46:03;;;;;;;1.80;0.70;;;12.60;57.90;;;;;;5024912;28;20292;-50
2023/04/13 01:48:32;;;;;;;0.77;0.77;;;12.60;57.80;;;;;;5012438;28;20866;-49
2023/04/13 01:51:04;;;;;;;2.23;0.90;;;12.50;57.40;;;;;;5010180;28;20448;-50
2023/04/13 01:53:38;;;;;;;0.80;0.80;;;12.50;57.60;;;;;;5012348;28;20473;-49
2023/04/13 01:56:05;;;;;;;0.93;0.80;;;12.60;57.60;;;;;;5018132;28;20447;-49
2023/04/13 01:58:33;;;;;;;0.67;0.67;;;12.60;57.40;;;;;;5012200;28;20495;-50
2023/04/13 02:00:59;;;;;;;1.10;0.93;;;12.60;57.30;;;;;;5012378;28;20442;-53
2023/04/13 02:03:25;;;;;;;0.63;0.60;;;12.70;57.00;;;;;;5010514;28;20494;-54
2023/04/13 02:05:51;;;;;;;1.57;0.63;;;12.70;56.70;;;;;;5013572;28;20558;-52
2023/04/13 02:08:17;;;;;;;1.57;0.80;;;12.70;56.60;;;;;;5016304;28;20472;-53
2023/04/13 02:10:44;;;;;;;0.80;0.70;;;12.70;56.60;;;;;;5033208;28;20487;-54
2023/04/13 02:13:10;;;;;;;0.83;0.70;;;12.60;56.50;;;;;;5018134;28;20527;-53
2023/04/13 02:15:37;;;;;;;0.60;0.50;;;12.60;56.40;;;;;;5027926;28;20524;-53
2023/04/13 02:18:03;;;;;;;2.33;0.80;;;12.50;56.20;;;;;;5021675;28;20491;-54
2023/04/13 02:20:32;;;;;;;1.00;0.70;;;12.50;56.40;;;;;;5014097;28;20472;-53
2023/04/13 02:22:59;;;;;;;2.60;0.67;;;12.40;56.50;;;;;;5015287;28;20546;-53
2023/04/13 02:25:26;;;;;;;0.90;0.67;;;12.40;56.40;;;;;;5012803;28;20444;-52
2023/04/13 02:27:52;;;;;;;1.97;0.67;;;12.50;56.30;;;;;;5014196;28;20483;-53
2023/04/13 02:30:18;;;;;;;0.70;0.70;;;12.40;55.70;;;;;;5025890;28;20479;-53
2023/04/13 02:32:48;;;;;;;2.63;0.90;;;12.50;55.60;;;;;;5017128;28;20193;-50
2023/04/13 02:35:14;;;;;;;1.00;0.70;;;12.50;55.50;;;;;;5014869;28;20194;-50
2023/04/13 02:37:40;;;;;;;3.33;0.87;;;12.60;55.40;;;;;;5017380;28;20485;-50
2023/04/13 02:40:08;;;;;;;3.53;1.10;;;12.60;55.20;;;;;;5025669;28;20451;-49
2023/04/13 02:42:35;;;;;;;1.17;0.80;;;12.70;55.00;;;;;;5019774;28;20197;-52
2023/04/13 02:45:00;;;;;;;1.20;0.83;;;12.70;55.10;;;;;;5022348;28;20444;-49
2023/04/13 02:47:26;;;;;;;0.93;0.73;;;12.60;55.00;;;;;;5017138;28;21465;-54
2023/04/13 02:49:51;;;;;;;1.77;0.70;;;12.60;54.90;;;;;;5012685;28;20277;-52
2023/04/13 02:52:17;;;;;;;1.67;0.80;;;12.60;55.10;;;;;;5013096;28;20197;-49
2023/04/13 02:54:43;;;;;;;2.10;0.70;;;12.60;55.20;;;;;;5023810;28;20225;-52
2023/04/13 02:57:12;;;;;;;0.90;0.80;;;12.70;55.20;;;;;;5026985;28;20208;-53
2023/04/13 02:59:39;;;;;;;1.00;0.80;;;12.60;55.30;;;;;;5022342;28;20913;-53
2023/04/13 03:02:05;;;;;;;2.70;0.70;;;12.70;55.30;;;;;;5022763;28;20959;-54
2023/04/13 03:04:31;;;;;;;1.53;0.70;;;12.70;55.30;;;;;;5024621;28;20901;-52
2023/04/13 03:06:57;;;;;;;2.60;0.60;;;12.80;55.10;;;;;;5030258;28;20515;-51
2023/04/13 03:09:24;;;;;;;1.40;0.80;;;12.80;55.00;;;;;;5027132;28;20205;-54
2023/04/13 03:11:50;;;;;;;0.97;0.70;;;12.90;55.00;;;;;;5023514;28;20807;-52
2023/04/13 03:14:19;;;;;;;0.80;0.70;;;12.90;54.80;;;;;;5025409;28;20800;-53
2023/04/13 03:16:45;;;;;;;1.20;0.80;;;12.90;54.90;;;;;;5035010;28;20539;-54
2023/04/13 03:19:11;;;;;;;1.30;0.70;;;12.80;54.10;;;;;;5017421;28;20574;-53
2023/04/13 03:21:36;;;;;;;2.57;0.87;;;12.70;54.10;;;;;;5022564;28;20220;-52
2023/04/13 03:24:02;;;;;;;1.00;0.90;;;12.70;54.20;;;;;;5027952;28;20198;-53
2023/04/13 03:26:28;;;;;;;1.50;0.90;;;12.70;54.50;;;;;;5029801;28;20201;-51
2023/04/13 03:28:53;;;;;;;0.63;0.63;;;12.60;54.90;;;;;;5029982;28;20424;-50
2023/04/13 03:31:21;;;;;;;1.30;0.70;;;12.60;55.10;;;;;;5027916;28;20193;-52
2023/04/13 03:33:46;;;;;;;2.00;1.00;;;12.60;54.90;;;;;;5010381;28;20190;-51
2023/04/13 03:36:12;;;;;;;0.90;0.73;;;12.50;54.80;;;;;;5008998;28;20862;-50
2023/04/13 03:38:37;;;;;;;2.73;1.10;;;12.50;54.70;;;;;;5010283;28;20233;-54
2023/04/13 03:41:03;;;;;;;2.67;0.80;;;12.50;54.90;;;;;;5019288;28;20190;-54
2023/04/13 03:43:29;;;;;;;1.27;0.90;;;12.40;54.90;;;;;;5015002;28;20331;-51
2023/04/13 03:45:54;;;;;;;3.10;0.87;;;12.20;54.90;;;;;;5011232;28;20284;-52
2023/04/13 03:48:20;;;;;;;2.63;1.07;;;12.30;55.00;;;;;;5016919;28;20200;-54
2023/04/13 03:50:46;;;;;;;3.77;1.10;;;12.20;54.80;;;;;;5023296;28;20663;-50
2023/04/13 03:53:11;;;;;;;0.90;0.70;;;12.30;54.80;;;;;;5011129;28;20739;-54
2023/04/13 03:55:37;;;;;;;1.03;0.87;;;11.90;54.50;;;;;;5017334;28;20197;-54
2023/04/13 03:58:02;;;;;;;1.00;0.90;;;11.90;54.80;;;;;;5023984;28;20279;-50
2023/04/13 04:00:29;;;;;;;1.30;1.00;;;11.90;54.60;;;;;;5014476;28;20194;-51
2023/04/13 04:02:54;;;;;;;2.10;0.80;;;12.10;54.60;;;;;;5012873;28;20204;-52
2023/04/13 04:05:23;;;;;;;2.53;0.93;;;12.10;54.30;;;;;;5016176;28;20444;-53
2023/04/13 04:07:49;;;;;;;0.80;0.80;;;12.20;54.50;;;;;;5016507;28;20205;-53
2023/04/13 04:10:16;;;;;;;3.27;0.77;;;12.20;54.30;;;;;;5028038;28;20466;-51
2023/04/13 04:12:42;;;;;;;4.50;0.83;;;12.30;54.10;;;;;;5015047;28;20607;-51
2023/04/13 04:15:08;;;;;;;1.87;0.90;;;12.30;53.80;;;;;;5011344;28;20440;-53
2023/04/13 04:17:33;;;;;;;2.50;0.70;;;12.10;54.10;;;;;;5012688;28;20933;-53
2023/04/13 04:19:59;;;;;;;3.07;1.00;;;12.00;54.50;;;;;;5012234;28;20447;-54
2023/04/13 04:22:28;;;;;;;1.00;0.80;;;11.80;54.70;;;;;;5018667;28;20568;-50
2023/04/13 04:24:57;;;;;;;1.43;0.70;;;11.80;54.70;;;;;;5013287;28;21759;-52
2023/04/13 04:27:25;;;;;;;0.77;0.77;;;12.00;54.50;;;;;;5017563;28;21018;-50
2023/04/13 04:29:51;;;;;;;2.20;0.90;;;11.90;54.40;;;;;;5022076;28;21244;-53
2023/04/13 04:32:18;;;;;;;1.47;0.80;;;11.80;54.30;;;;;;5011578;28;20452;-50
2023/04/13 04:34:45;;;;;;;1.73;0.90;;;11.60;54.30;;;;;;5019146;28;20451;-50
2023/04/13 04:37:14;;;;;;;2.63;0.80;;;11.40;54.90;;;;;;5026255;28;20446;-54
2023/04/13 04:39:43;;;;;;;2.80;1.47;;;11.20;55.40;;;;;;5030118;28;20444;-54
2023/04/13 04:42:09;;;;;;;2.30;0.83;;;11.30;55.40;;;;;;5017541;28;20508;-53
2023/04/13 04:44:36;;;;;;;3.47;1.03;;;11.10;55.60;;;;;;5018421;28;20438;-54
2023/04/13 04:47:03;;;;;;;1.23;0.60;;;11.10;55.20;;;;;;5029607;28;20757;-54
2023/04/13 04:49:29;;;;;;;3.10;1.00;;;11.20;55.40;;;;;;5019982;28;20449;-54
2023/04/13 04:51:56;;;;;;;1.03;0.60;;;11.20;55.50;;;;;;5012062;28;20453;-53
2023/04/13 04:54:22;;;;;;;1.63;1.17;;;11.30;55.50;;;;;;5011904;28;20555;-53
2023/04/13 04:56:47;;;;;;;1.13;0.87;;;11.40;55.20;;;;;;5014041;28;20447;-54
2023/04/13 04:59:13;;;;;;;2.20;1.20;;;11.40;54.80;;;;;;5018229;28;20489;-53
2023/04/13 05:01:39;;;;;;;1.07;0.90;;;11.50;54.60;;;;;;5011073;28;20217;-54
2023/04/13 05:04:06;;;;;;;1.63;0.97;;;11.50;54.20;;;;;;5018442;28;20189;-54
2023/04/13 05:06:34;;;;;;;1.67;1.00;;;11.40;54.20;;;;;;5020130;28;20574;-51
2023/04/13 05:09:02;;;;;;;2.07;1.10;;;11.50;54.00;;;;;;5018895;28;20444;-53
2023/04/13 05:11:28;;;;;;;2.33;0.87;;;11.50;54.00;;;;;;5013891;28;20453;-51
2023/04/13 05:13:54;;;;;;;1.83;1.27;;;11.40;53.90;;;;;;5022031;28;20530;-53
2023/04/13 05:16:20;;;;;;;2.00;1.10;;;11.30;54.10;;;;;;5010940;28;20436;-53
2023/04/13 05:18:47;;;;;;;1.60;0.80;;;11.20;53.90;;;;;;5011078;28;20487;-50
2023/04/13 05:21:13;;;;;;;2.00;1.27;;;11.10;54.90;;;;;;5015244;28;20436;-49
2023/04/13 05:23:39;;;;;;;1.90;1.10;;;11.20;55.50;;;;;;5013584;28;20444;-52
2023/04/13 05:26:07;;;;;;;5.53;1.70;;;11.50;55.20;;;;;;5010063;28;20440;-52
2023/04/13 05:28:35;;;;;;;6.30;1.73;;;11.70;54.40;;;;;;5013055;28;20454;-52
2023/04/13 05:31:02;;;;;;;7.53;2.00;;;11.50;53.80;;;;;;5011488;28;20470;-49
2023/04/13 05:33:28;;;;;;;3.87;1.30;;;11.70;54.00;;;;;;5013907;28;20441;-50
2023/04/13 05:35:54;;;;;;;2.10;1.03;;;11.80;53.70;;;;;;5027636;28;20483;-52
2023/04/13 05:38:20;;;;;;;3.60;1.03;;;11.80;53.30;;;;;;5033098;28;20484;-49
2023/04/13 05:40:45;;;;;;;2.13;0.90;;;11.90;53.60;;;;;;5030322;28;20482;-49
2023/04/13 05:43:12;;;;;;;5.97;1.13;;;12.00;53.20;;;;;;5018539;28;21036;-51
2023/04/13 05:45:37;;;;;;;4.17;1.10;;;12.10;53.20;;;;;;5028796;28;20724;-49
2023/04/13 05:48:03;;;;;;;2.67;1.07;;;12.10;53.20;;;;;;5028670;28;20446;-49
2023/04/13 05:50:29;;;;;;;3.50;1.63;;;12.20;52.80;;;;;;5026068;28;20669;-50
2023/04/13 05:52:56;;;;;;;1.43;1.33;;;12.20;52.50;;;;;;5019619;28;20195;-52
2023/04/13 05:55:22;;;;;;;4.10;1.00;;;12.20;52.30;;;;;;5024872;28;20189;-49
2023/04/13 05:57:48;;;;;;;3.43;1.00;;;12.30;52.20;;;;;;5032519;28;20499;-49
2023/04/13 06:00:17;;;;;;;3.03;1.30;;;12.50;52.40;;;;;;5029722;28;20530;-52
2023/04/13 06:02:43;;;;;;;3.90;0.93;;;12.50;52.90;;;;;;5027823;28;20476;-52
2023/04/13 06:05:13;;;;;;;2.93;1.20;;;12.60;52.20;;;;;;5031743;28;20432;-49
2023/04/13 06:07:39;;;;;;;2.80;1.00;;;12.70;52.30;;;;;;5025062;28;20877;-48
2023/04/13 06:10:05;;;;;;;0.80;0.80;;;12.50;51.20;;;;;;5033001;28;20452;-49
2023/04/13 06:12:32;;;;;;;1.87;1.20;;;12.40;51.60;;;;;;5029528;28;20438;-51
2023/04/13 06:14:57;;;;;;;1.97;1.20;;;12.50;51.90;;;;;;5015980;28;21013;-48
2023/04/13 06:17:23;;;;;;;2.07;1.07;;;12.30;50.90;;;;;;5032243;28;20609;-52
2023/04/13 06:19:49;;;;;;;2.17;1.03;;;12.30;51.30;;;;;;5030704;28;20193;-51
2023/04/13 06:22:14;;;;;;;24.03;1.63;;;12.40;51.70;;;;;;5026493;28;20198;-49
2023/04/13 06:24:40;;;;;;;3.27;1.23;;;12.40;51.40;;;;;;5013536;28;20631;-49
2023/04/13 06:27:05;;;;;;;3.33;1.20;;;12.40;51.50;;;;;;5017443;28;20185;-49
2023/04/13 06:29:31;;;;;;;4.03;1.20;;;12.00;51.40;;;;;;5028390;28;20598;-51
2023/04/13 06:31:57;;;;;;;3.80;1.13;;;12.20;51.90;;;;;;5021229;28;20297;-50
2023/04/13 06:34:22;;;;;;;2.47;1.17;;;12.20;51.70;;;;;;5020662;28;20206;-53
2023/04/13 06:36:48;;;;;;;1.07;0.97;;;12.10;51.50;;;;;;5021997;28;20206;-52
2023/04/13 06:39:14;;;;;;;3.00;1.00;;;12.00;51.30;;;;;;5027859;28;20228;-49
2023/04/13 06:41:40;;;;;;;3.87;1.10;;;12.10;51.50;;;;;;5021667;28;20323;-52
2023/04/13 06:44:05;;;;;;;2.93;1.23;;;11.90;51.40;;;;;;5029221;28;20539;-53
2023/04/13 06:46:31;;;;;;;4.23;1.90;;;11.60;51.70;;;;;;5015576;28;20196;-48
2023/04/13 06:48:57;;;;;;;3.50;1.23;;;11.40;52.10;;;;;;5016841;28;20208;-49
2023/04/13 06:51:22;;;;;;;2.13;1.37;;;11.50;52.50;;;;;;5017957;28;20197;-52
2023/04/13 06:53:48;;;;;;;3.87;1.43;;;11.50;52.20;;;;;;5014790;28;20240;-51
2023/04/13 06:56:14;;;;;;;2.90;1.57;;;11.50;52.60;;;;;;5017713;28;20201;-49
2023/04/13 06:58:40;;;;;;;3.00;1.43;;;11.60;52.20;;;;;;5023231;28;20494;-55
2023/04/13 07:01:07;;;;;;;2.07;1.27;;;11.50;52.00;;;;;;5034486;28;20185;-50
2023/04/13 07:03:32;;;;;;;2.30;1.10;;;11.70;52.00;;;;;;5027631;28;20447;-52
2023/04/13 07:05:58;;;;;;;3.70;1.20;;;11.70;52.30;;;;;;5028155;28;20440;-48
2023/04/13 07:08:23;;;;;;;3.23;1.23;;;11.60;51.90;;;;;;5034778;28;20202;-49
2023/04/13 07:10:53;;;;;;;3.00;0.90;;;11.50;52.00;;;;;;5022973;28;20197;-49
2023/04/13 07:13:19;;;;;;;3.43;1.10;;;11.40;52.10;;;;;;5031861;28;20213;-52
2023/04/13 07:15:45;;;;;;;5.23;1.00;;;11.40;52.40;;;;;;5029810;28;20452;-53
2023/04/13 07:18:11;;;;;;;3.13;1.23;;;11.60;52.10;;;;;;5033675;28;20479;-49
2023/04/13 07:20:38;;;;;;;3.93;1.13;;;11.70;51.70;;;;;;5035967;28;20229;-52
2023/04/13 07:23:04;;;;;;;6.30;1.27;;;11.70;51.80;;;;;;5026240;28;20649;-53
2023/04/13 07:25:30;;;;;;;2.60;1.10;;;11.90;51.40;;;;;;5029782;28;20456;-49
2023/04/13 07:27:56;;;;;;;5.80;1.10;;;11.80;51.50;;;;;;5031559;28;20205;-50
2023/04/13 07:30:22;;;;;;;3.03;1.10;;;12.00;51.60;;;;;;5026245;28;20214;-50
2023/04/13 07:32:47;;;;;;;1.77;0.90;;;11.90;51.20;;;;;;5027463;28;20444;-49
2023/04/13 07:35:13;;;;;;;3.47;1.47;;;12.20;51.30;;;;;;5028909;28;20720;-50
2023/04/13 07:37:41;;;;;;;1.90;0.77;;;12.30;50.80;;;;;;5023137;28;20315;-52
2023/04/13 07:40:07;;;;;;;3.67;1.10;;;12.40;50.50;;;;;;5036202;28;20212;-54
2023/04/13 07:42:33;;;;;;;1.40;1.30;;;12.60;50.60;;;;;;5038115;28;20453;-51
2023/04/13 07:44:58;;;;;;;3.93;1.20;;;12.80;50.70;;;;;;5035001;28;20931;-49
2023/04/13 07:47:24;;;;;;;3.00;1.20;;;12.70;50.20;;;;;;5038018;28;20219;-49
2023/04/13 07:49:50;;;;;;;3.53;1.20;;;12.70;50.30;;;;;;5040508;28;20192;-54
2023/04/13 07:52:15;;;;;;;5.67;1.30;;;12.60;50.40;;;;;;5033520;28;20614;-49
2023/04/13 07:54:41;;;;;;;6.10;1.97;;;12.80;50.50;;;;;;5033124;28;20532;-52
2023/04/13 07:57:06;;;;;;;6.03;1.27;;;12.70;50.20;;;;;;5029738;28;20352;-54
2023/04/13 07:59:32;;;;;;;2.87;1.33;;;12.70;50.00;;;;;;5021358;28;20229;-48
2023/04/13 08:01:58;;;;;;;5.47;1.60;;;12.90;50.30;;;;;;5031848;28;20209;-49
2023/04/13 08:04:24;;;;;;;4.90;1.67;;;12.90;50.10;;;;;;5033287;28;20201;-51
2023/04/13 08:06:50;;;;;;;3.73;1.10;;;12.80;50.10;;;;;;5032035;28;20220;-49
2023/04/13 08:09:15;;;;;;;3.60;1.30;;;12.80;51.00;;;;;;5028166;28;20437;-50
2023/04/13 08:11:41;;;;;;;2.50;2.30;;;12.60;50.50;;;;;;5030044;28;20268;-49
2023/04/13 08:14:08;;;;;;;3.57;1.40;;;12.70;51.40;;;;;;5022994;28;20206;-50
2023/04/13 08:16:34;;;;;;;3.10;1.50;;;12.40;50.60;;;;;;5030602;28;20436;-49
2023/04/13 08:19:00;;;;;;;6.40;1.50;;;12.40;50.80;;;;;;5034268;28;20518;-51
2023/04/13 08:21:28;;;;;;;4.43;2.07;;;12.70;51.10;;;;;;5034623;28;20212;-48
2023/04/13 08:23:53;;;;;;;6.73;1.40;;;12.90;51.80;;;;;;5032654;28;20456;-49
2023/04/13 08:26:20;;;;;;;2.57;1.50;;;13.00;51.50;;;;;;5027720;28;20506;-48
2023/04/13 08:28:51;;;;;;;4.50;1.50;;;13.00;51.40;;;;;;5027135;28;20225;-48
2023/04/13 08:31:17;;;;;;;5.13;1.63;;;12.90;50.80;;;;;;5020769;28;20441;-49
2023/04/13 08:33:42;;;;;;;4.20;1.60;;;12.90;50.90;;;;;;5023185;28;20853;-49
2023/04/13 08:36:08;;;;;;;3.67;1.60;;;12.70;50.50;;;;;;5030300;28;20193;-50
2023/04/13 08:38:34;;;;;;;5.80;1.90;;;12.90;51.00;;;;;;5031907;28;20225;-53
2023/04/13 08:41:02;;;;;;;3.20;1.20;;;12.90;50.80;;;;;;5017294;28;20193;-48
2023/04/13 08:43:28;;;;;;;2.23;1.33;;;13.10;50.80;;;;;;5016742;28;20205;-49
2023/04/13 08:45:53;;;;;;;6.30;1.80;;;12.90;50.50;;;;;;5014701;28;20452;-51
2023/04/13 08:48:21;;;;;;;6.10;1.80;;;13.10;50.80;;;;;;5019672;28;20203;-50
2023/04/13 08:50:51;;;;;;;4.03;1.30;;;12.90;50.50;;;;;;5022636;28;21010;-53
2023/04/13 08:53:17;;;;;;;3.80;1.30;;;12.90;50.60;;;;;;5018476;28;20476;-50
2023/04/13 08:55:44;;;;;;;3.20;1.40;;;13.10;50.20;;;;;;5027276;28;20453;-50
2023/04/13 08:58:11;;;;;;;4.70;1.67;;;13.30;50.00;;;;;;5022918;28;20480;-50
2023/04/13 09:00:40;;;;;;;3.30;1.53;;;13.20;50.40;;;;;;5022661;28;20448;-51
2023/04/13 09:03:07;;;;;;;3.07;1.30;;;13.40;50.00;;;;;;5020009;28;20532;-49
2023/04/13 09:05:37;;;;;;;5.77;1.60;;;13.40;49.00;;;;;;5025249;28;20486;-49
2023/04/13 09:08:05;;;;;;;1.50;1.30;;;13.30;49.10;;;;;;5021733;28;20514;-52
2023/04/13 09:10:31;;;;;;;5.07;1.30;;;13.30;49.20;;;;;;5021408;28;20435;-53
2023/04/13 09:12:56;;;;;;;3.60;1.93;;;13.20;49.20;;;;;;5028518;28;20505;-50
2023/04/13 09:15:23;;;;;;;2.37;1.17;;;13.00;49.40;;;;;;5027421;28;20198;-49
2023/04/13 09:17:49;;;;;;;3.33;1.00;;;13.00;50.60;;;;;;5018057;28;20245;-49
2023/04/13 09:20:22;;;;;;;4.97;2.00;;;13.10;50.90;;;;;;5027346;28;20439;-48
2023/04/13 09:22:51;;;;;;;5.50;2.30;;;13.20;50.70;;;;;;5028467;28;20970;-51
2023/04/13 09:25:27;;;;;;;3.13;1.57;;;13.20;50.50;;;;;;5030122;28;20444;-49
2023/04/13 09:27:54;;;;;;;3.27;1.30;;;13.40;50.60;;;;;;5030867;28;20497;-49
2023/04/13 09:30:25;;;;;;;4.33;1.50;;;13.50;50.60;;;;;;5029818;28;20432;-49
2023/04/13 09:33:21;;;;;;;2.77;1.50;;;13.40;50.30;;;;;;5018971;28;20452;-51
2023/04/13 09:35:46;;;;;;;1.77;1.17;;;13.40;50.60;;;;;;5016206;28;20990;-51
2023/04/13 09:38:15;;;;;;;5.10;1.40;;;13.10;49.90;;;;;;5016154;28;20491;-49
2023/04/13 09:40:47;;;;;;;4.60;1.57;;;13.20;50.00;;;;;;5019046;28;20197;-49
2023/04/13 09:43:13;;;;;;;4.20;1.30;;;13.30;49.80;;;;;;5021289;28;20568;-51
2023/04/13 09:45:43;;;;;;;2.60;1.23;;;13.50;49.60;;;;;;5016651;28;20517;-49
2023/04/13 09:48:20;;;;;;;3.60;1.67;;;13.50;49.40;;;;;;5028023;28;20201;-48
2023/04/13 09:51:06;;;;;;;2.00;1.63;;;13.30;48.70;;;;;;5017610;28;20444;-51
2023/04/13 09:53:48;;;;;;;3.17;1.40;;;13.40;48.60;;;;;;5024707;28;20567;-48
2023/04/13 09:56:15;;;;;;;3.27;1.70;;;13.50;48.60;;;;;;5018289;28;20487;-48
2023/04/13 09:58:43;;;;;;;2.60;1.30;;;13.40;49.00;;;;;;5024205;28;20494;-47
2023/04/13 10:01:09;;;;;;;4.30;1.30;;;13.50;49.50;;;;;;5025608;28;20506;-47
2023/04/13 10:03:36;;;;;;;2.70;1.20;;;13.80;48.50;;;;;;5021760;28;20453;-47
2023/04/13 10:06:06;;;;;;;6.13;1.57;;;13.60;46.70;;;;;;5025179;28;20197;-48
2023/04/13 10:08:33;;;;;;;3.07;1.50;;;13.60;47.70;;;;;;5015350;28;20555;-48
2023/04/13 10:11:00;;;;;;;7.60;1.80;;;13.80;48.00;;;;;;5020823;28;20785;-49
2023/04/13 10:13:32;;;;;;;3.20;1.60;;;14.00;48.00;;;;;;5022119;28;20437;-48
2023/04/13 10:16:21;;;;;;;3.77;1.70;;;14.20;47.50;;;;;;5019448;28;20482;-52
2023/04/13 10:19:00;;;;;;;4.80;1.67;;;14.20;47.40;;;;;;5018977;28;20917;-47
2023/04/13 10:21:32;;;;;;;7.80;4.00;;;14.20;47.70;;;;;;5020962;28;20514;-49
2023/04/13 10:23:58;;;;;;;7.50;2.67;;;13.90;47.70;;;;;;5019270;28;20447;-63
2023/04/13 10:26:33;;;;;;;4.80;2.17;;;14.20;48.20;;;;;;5016618;28;20974;-49
2023/04/13 10:29:00;;;;;;;6.50;1.90;;;14.40;47.90;;;;;;5018783;28;20220;-49
2023/04/13 10:31:40;;;;;;;3.07;2.20;;;14.60;47.70;;;;;;5028481;28;20530;-52
2023/04/13 10:34:06;;;;;;;7.33;2.23;;;14.50;46.80;;;;;;5019898;28;20487;-47
2023/04/13 10:36:43;;;;;;;1.40;1.30;;;14.60;47.70;;;;;;5018483;28;20950;-52
2023/04/13 10:39:09;;;;;;;3.43;1.57;;;14.70;47.10;;;;;;5019801;28;20826;-52
2023/04/13 10:41:35;;;;;;;3.87;1.13;;;14.60;46.10;;;;;;5013165;28;20440;-52
2023/04/13 10:44:02;;;;;;;3.10;0.80;;;14.30;44.70;;;;;;5014951;28;20452;-53
2023/04/13 10:46:29;;;;;;;2.87;1.93;;;14.20;45.40;;;;;;5028807;28;20473;-52
2023/04/13 10:48:58;;;;;;;4.10;1.30;;;13.90;45.20;;;;;;5021882;28;21130;-53
2023/04/13 10:51:26;;;;;;;3.77;1.60;;;13.80;45.30;;;;;;5030272;28;20444;-54
2023/04/13 10:54:01;;;;;;;7.10;1.63;;;13.70;45.60;;;;;;5029390;28;21006;-52
2023/04/13 10:56:27;;;;;;;3.67;1.53;;;13.80;45.70;;;;;;5029506;28;20525;-53
2023/04/13 10:58:53;;;;;;;2.00;1.50;;;13.60;46.00;;;;;;5032296;28;20561;-53
2023/04/13 11:01:19;;;;;;;4.33;1.47;;;13.30;46.50;;;;;;5032007;28;20649;-52
2023/04/13 11:03:46;;;;;;;2.93;1.43;;;13.40;47.30;;;;;;5032636;28;20454;-52
2023/04/13 11:06:11;;;;;;;2.57;1.30;;;13.70;47.60;;;;;;5021503;28;20475;-52
2023/04/13 11:08:38;;;;;;;4.20;1.20;;;13.90;47.40;;;;;;5029344;28;20543;-53
2023/04/13 11:11:04;;;;;;;11.23;1.40;;;14.10;47.90;;;;;;5032108;28;20705;-52
2023/04/13 11:13:31;;;;;;;5.30;2.20;;;14.00;47.20;;;;;;5032988;28;20478;-52
2023/04/13 11:16:04;;;;;;;3.63;1.00;;;14.20;46.90;;;;;;5022591;28;20194;-52
2023/04/13 11:18:31;;;;;;;4.93;1.60;;;14.50;46.90;;;;;;5017596;28;20573;-53
2023/04/13 11:20:56;;;;;;;6.30;2.30;;;14.80;46.90;;;;;;5030917;28;20443;-52
2023/04/13 11:23:22;;;;;;;5.00;1.47;;;15.00;46.40;;;;;;5028784;28;20497;-51
2023/04/13 11:26:00;;;;;;;4.57;1.70;;;15.10;45.90;;;;;;5032624;28;20672;-53
2023/04/13 11:28:56;;;;;;;1.63;1.50;;;15.30;46.60;;;;;;5023632;28;21442;-52
2023/04/13 11:31:33;;;;;;;2.73;1.07;;;15.50;49.00;;;;;;5026489;28;20469;-52
2023/04/13 11:33:59;;;;;;;3.97;1.60;;;15.60;49.90;;;;;;5030747;28;20508;-50
2023/04/13 11:36:25;;;;;;;3.50;1.67;;;15.70;49.10;;;;;;5014415;28;20447;-50
2023/04/13 11:38:53;;;;;;;5.10;1.47;;;15.80;48.50;;;;;;5029100;28;20484;-48
2023/04/13 11:41:18;;;;;;;4.70;1.60;;;15.90;47.80;;;;;;5019527;28;20439;-49
2023/04/13 11:43:44;;;;;;;5.13;1.83;;;15.80;46.90;;;;;;5042163;28;20424;-51
2023/04/13 11:46:12;;;;;;;3.87;1.70;;;15.50;48.10;;;;;;5031198;28;20201;-50
2023/04/13 11:48:38;;;;;;;3.93;2.20;;;15.40;50.80;;;;;;5021829;28;20619;-51
2023/04/13 11:51:04;;;;;;;6.27;1.70;;;15.10;52.60;;;;;;5030393;28;20531;-52
2023/04/13 11:53:31;;;;;;;4.77;1.60;;;15.10;53.90;;;;;;5017845;28;20834;-52
2023/04/13 11:55:56;;;;;;;7.90;1.77;;;15.00;54.30;;;;;;5025899;28;20205;-52
2023/04/13 11:58:23;;;;;;;5.53;1.70;;;15.00;55.20;;;;;;5020780;28;20494;-52
2023/04/13 12:00:48;;;;;;;4.13;2.00;;;15.10;55.50;;;;;;5021262;28;20860;-51
2023/04/13 12:03:16;;;;;;;3.10;2.07;;;15.20;55.20;;;;;;5021662;28;20443;-50
2023/04/13 12:05:43;;;;;;;3.20;1.80;;;15.20;54.70;;;;;;5018627;28;20194;-52
2023/04/13 12:08:09;;;;;;;7.23;2.20;;;15.20;54.50;;;;;;5027247;28;20500;-50
2023/04/13 12:10:35;;;;;;;7.00;2.17;;;14.80;54.30;;;;;;5021390;28;20523;-53
2023/04/13 12:13:08;;;;;;;3.00;1.87;;;14.60;55.50;;;;;;5026070;28;20201;-54
2023/04/13 12:15:36;;;;;;;7.73;2.00;;;14.50;55.80;;;;;;5017119;28;20527;-51
2023/04/13 12:18:03;;;;;;;4.03;1.80;;;14.60;56.00;;;;;;5029447;28;20549;-49
2023/04/13 12:20:37;;;;;;;4.27;1.47;;;14.50;55.90;;;;;;5026781;28;20993;-53
2023/04/13 12:23:03;;;;;;;5.47;1.60;;;14.20;58.10;;;;;;5028428;28;20459;-49
2023/04/13 12:25:30;;;;;;;3.03;1.60;;;14.00;59.40;;;;;;5026366;28;20535;-50
2023/04/13 12:27:56;;;;;;;2.00;1.20;;;13.90;59.40;;;;;;5034741;28;20446;-50
2023/04/13 12:30:22;;;;;;;5.90;2.03;;;14.10;59.80;;;;;;5023327;28;20440;-50
2023/04/13 12:32:52;;;;;;;3.43;1.53;;;14.10;59.30;;;;;;5026725;28;20209;-53
2023/04/13 12:35:20;;;;;;;4.00;1.27;;;14.20;61.10;;;;;;5019482;28;20193;-50
2023/04/13 12:37:47;;;;;;;3.57;1.97;;;14.20;65.00;;;;;;5034403;28;20485;-53
2023/04/13 12:40:14;;;;;;;2.83;1.20;;;14.30;63.10;;;;;;5022371;28;20574;-53
2023/04/13 12:42:47;;;;;;;2.23;1.10;;;14.40;60.40;;;;;;5025945;28;20454;-51
2023/04/13 12:45:13;;;;;;;1.90;1.60;;;14.20;59.80;;;;;;5018559;28;20874;-52
2023/04/13 12:47:39;;;;;;;2.60;1.20;;;14.20;59.60;;;;;;5027472;28;20451;-50
2023/04/13 12:50:07;;;;;;;2.53;2.03;;;14.30;59.50;;;;;;5018464;28;20440;-50